sensor_id;sensor_type;location;lat;lon;timestamp;pressure;altitude;pressure_sealevel;temperature;humidity
20624;BME280;10471;42.736;23.346;2023-02-02T00:01:40;95670.16;;;3.85;100.00
20624;BME280;10471;42.736;23.346;2023-02-02T00:04:05;95669.94;;;3.86;100.00
20624;BME280;10471;42.736;23.346;2023-02-02T00:06:32;95671.28;;;3.88;100.00
20624;BME280;10471;42.736;23.346;2023-02-02T00:08:59;95674.59;;;3.95;100.00
20624;BME280;10471;42.736;23.346;2023-02-02T00:11:26;95673.69;;;4.01;100.00
20624;BME280;10471;42.736;23.346;2023-02-02T00:13:51;95669.84;;;4.04;100.00
20624;BME280;10471;42.736;23.346;2023-02-02T00:18:56;95674.44;;;4.13;100.00
20624;BME280;10471;42.736;23.346;2023-02-02T00:21:22;95683.06;;;4.25;100.00
20624;BME280;10471;42.736;23.346;2023-02-02T00:23:48;95684.44;;;4.28;100.00
20624;BME280;10471;42.736;23.346;2023-02-02T00:26:13;95684.88;;;4.13;100.00
20624;BME280;10471;42.736;23.346;2023-02-02T00:28:39;95687.97;;;3.99;100.00
20624;BME280;10471;42.736;23.346;2023-02-02T00:31:04;95696.44;;;3.94;100.00
20624;BME280;10471;42.736;23.346;2023-02-02T00:33:30;95695.31;;;3.90;100.00
20624;BME280;10471;42.736;23.346;2023-02-02T00:35:55;95700.19;;;3.87;100.00
20624;BME280;10471;42.736;23.346;2023-02-02T00:38:20;95699.50;;;3.80;100.00
20624;BME280;10471;42.736;23.346;2023-02-02T00:40:46;95702.31;;;3.79;100.00
20624;BME280;10471;42.736;23.346;2023-02-02T00:43:11;95703.69;;;3.70;100.00
20624;BME280;10471;42.736;23.346;2023-02-02T00:45:37;95695.28;;;3.68;100.00
20624;BME280;10471;42.736;23.346;2023-02-02T00:48:03;95700.59;;;3.61;100.00
20624;BME280;10471;42.736;23.346;2023-02-02T00:50:29;95692.56;;;3.63;100.00
20624;BME280;10471;42.736;23.346;2023-02-02T00:52:54;95696.63;;;3.59;100.00
20624;BME280;10471;42.736;23.346;2023-02-02T00:55:20;95692.22;;;3.59;100.00
20624;BME280;10471;42.736;23.346;2023-02-02T00:57:46;95688.25;;;3.57;100.00
20624;BME280;10471;42.736;23.346;2023-02-02T01:00:17;95673.75;;;3.61;100.00
20624;BME280;10471;42.736;23.346;2023-02-02T01:02:42;95677.38;;;3.60;100.00
20624;BME280;10471;42.736;23.346;2023-02-02T01:05:10;95682.59;;;3.60;100.00
20624;BME280;10471;42.736;23.346;2023-02-02T01:07:36;95667.63;;;3.67;100.00
20624;BME280;10471;42.736;23.346;2023-02-02T01:10:01;95674.09;;;3.64;100.00
20624;BME280;10471;42.736;23.346;2023-02-02T01:12:27;95675.47;;;3.67;100.00
20624;BME280;10471;42.736;23.346;2023-02-02T01:14:53;95677.63;;;3.70;100.00
20624;BME280;10471;42.736;23.346;2023-02-02T01:17:18;95678.53;;;3.64;100.00
20624;BME280;10471;42.736;23.346;2023-02-02T01:19:44;95668.22;;;3.69;100.00
20624;BME280;10471;42.736;23.346;2023-02-02T01:22:09;95674.44;;;3.68;100.00
20624;BME280;10471;42.736;23.346;2023-02-02T01:24:35;95664.25;;;3.66;100.00
20624;BME280;10471;42.736;23.346;2023-02-02T01:27:00;95661.88;;;3.65;100.00
20624;BME280;10471;42.736;23.346;2023-02-02T01:29:26;95659.28;;;3.65;100.00
20624;BME280;10471;42.736;23.346;2023-02-02T01:31:51;95658.81;;;3.68;100.00
20624;BME280;10471;42.736;23.346;2023-02-02T01:34:16;95650.09;;;3.62;100.00
20624;BME280;10471;42.736;23.346;2023-02-02T01:36:42;95653.47;;;3.51;100.00
20624;BME280;10471;42.736;23.346;2023-02-02T01:39:07;95655.28;;;3.51;100.00
20624;BME280;10471;42.736;23.346;2023-02-02T01:41:33;95648.09;;;3.35;100.00
20624;BME280;10471;42.736;23.346;2023-02-02T01:44:00;95644.06;;;3.39;100.00
20624;BME280;10471;42.736;23.346;2023-02-02T01:46:32;95647.69;;;3.38;100.00
20624;BME280;10471;42.736;23.346;2023-02-02T01:49:11;95634.16;;;3.18;100.00
20624;BME280;10471;42.736;23.346;2023-02-02T01:51:41;95632.00;;;3.15;100.00
20624;BME280;10471;42.736;23.346;2023-02-02T01:54:13;95627.00;;;3.02;100.00
20624;BME280;10471;42.736;23.346;2023-02-02T01:56:45;95619.94;;;2.91;100.00
20624;BME280;10471;42.736;23.346;2023-02-02T01:59:14;95616.88;;;2.83;100.00
20624;BME280;10471;42.736;23.346;2023-02-02T02:01:42;95603.72;;;2.78;100.00
20624;BME280;10471;42.736;23.346;2023-02-02T02:04:08;95615.09;;;2.65;100.00
20624;BME280;10471;42.736;23.346;2023-02-02T02:06:33;95597.25;;;2.69;100.00
20624;BME280;10471;42.736;23.346;2023-02-02T02:09:02;95621.09;;;2.66;100.00
20624;BME280;10471;42.736;23.346;2023-02-02T02:11:29;95628.09;;;2.65;100.00
20624;BME280;10471;42.736;23.346;2023-02-02T02:13:57;95623.78;;;2.59;100.00
20624;BME280;10471;42.736;23.346;2023-02-02T02:37:14;95635.63;;;2.56;100.00
20624;BME280;10471;42.736;23.346;2023-02-02T02:39:49;95635.88;;;2.54;100.00
20624;BME280;10471;42.736;23.346;2023-02-02T02:42:22;95632.19;;;2.44;100.00
20624;BME280;10471;42.736;23.346;2023-02-02T02:44:49;95635.38;;;2.46;100.00
20624;BME280;10471;42.736;23.346;2023-02-02T02:47:16;95629.72;;;2.49;100.00
20624;BME280;10471;42.736;23.346;2023-02-02T02:49:44;95624.97;;;2.46;100.00
20624;BME280;10471;42.736;23.346;2023-02-02T02:52:10;95625.97;;;2.45;100.00
20624;BME280;10471;42.736;23.346;2023-02-02T02:55:02;95626.25;;;2.37;100.00
20624;BME280;10471;42.736;23.346;2023-02-02T02:57:58;95620.63;;;2.40;100.00
20624;BME280;10471;42.736;23.346;2023-02-02T03:08:39;95628.44;;;2.40;100.00
20624;BME280;10471;42.736;23.346;2023-02-02T03:11:07;95628.56;;;2.45;100.00
20624;BME280;10471;42.736;23.346;2023-02-02T03:13:34;95620.91;;;2.32;100.00
20624;BME280;10471;42.736;23.346;2023-02-02T03:16:00;95624.69;;;2.18;100.00
20624;BME280;10471;42.736;23.346;2023-02-02T03:18:27;95619.72;;;2.16;100.00
20624;BME280;10471;42.736;23.346;2023-02-02T03:20:53;95626.13;;;2.14;100.00
20624;BME280;10471;42.736;23.346;2023-02-02T03:23:19;95628.88;;;2.19;100.00
20624;BME280;10471;42.736;23.346;2023-02-02T03:25:45;95628.81;;;2.25;100.00
20624;BME280;10471;42.736;23.346;2023-02-02T03:28:11;95625.41;;;2.25;100.00
20624;BME280;10471;42.736;23.346;2023-02-02T03:30:38;95629.56;;;2.26;100.00
20624;BME280;10471;42.736;23.346;2023-02-02T03:33:06;95629.56;;;2.26;100.00
20624;BME280;10471;42.736;23.346;2023-02-02T03:35:31;95628.59;;;2.09;100.00
20624;BME280;10471;42.736;23.346;2023-02-02T03:37:57;95638.31;;;1.95;100.00
20624;BME280;10471;42.736;23.346;2023-02-02T03:40:22;95640.47;;;1.81;100.00
20624;BME280;10471;42.736;23.346;2023-02-02T03:42:48;95647.91;;;1.53;100.00
20624;BME280;10471;42.736;23.346;2023-02-02T03:45:13;95652.00;;;1.42;100.00
20624;BME280;10471;42.736;23.346;2023-02-02T03:47:39;95643.53;;;1.29;100.00
20624;BME280;10471;42.736;23.346;2023-02-02T03:50:07;95652.94;;;1.24;100.00
20624;BME280;10471;42.736;23.346;2023-02-02T03:52:32;95654.19;;;1.15;100.00
20624;BME280;10471;42.736;23.346;2023-02-02T03:54:59;95654.19;;;1.15;100.00
20624;BME280;10471;42.736;23.346;2023-02-02T03:57:24;95652.06;;;1.05;100.00
20624;BME280;10471;42.736;23.346;2023-02-02T03:59:49;95651.50;;;0.97;100.00
20624;BME280;10471;42.736;23.346;2023-02-02T04:02:15;95642.75;;;0.98;100.00
20624;BME280;10471;42.736;23.346;2023-02-02T04:04:40;95641.41;;;0.89;100.00
20624;BME280;10471;42.736;23.346;2023-02-02T04:07:06;95638.38;;;0.92;100.00
20624;BME280;10471;42.736;23.346;2023-02-02T04:09:31;95638.19;;;0.93;100.00
20624;BME280;10471;42.736;23.346;2023-02-02T04:11:56;95641.63;;;0.87;100.00
20624;BME280;10471;42.736;23.346;2023-02-02T04:14:22;95643.84;;;0.84;100.00
20624;BME280;10471;42.736;23.346;2023-02-02T04:16:47;95640.91;;;0.74;100.00
20624;BME280;10471;42.736;23.346;2023-02-02T04:19:12;95644.50;;;0.73;100.00
20624;BME280;10471;42.736;23.346;2023-02-02T04:21:38;95645.66;;;0.77;100.00
20624;BME280;10471;42.736;23.346;2023-02-02T04:24:05;95648.03;;;0.85;100.00
20624;BME280;10471;42.736;23.346;2023-02-02T04:26:31;95649.19;;;0.89;100.00
20624;BME280;10471;42.736;23.346;2023-02-02T04:28:56;95653.88;;;1.05;100.00
20624;BME280;10471;42.736;23.346;2023-02-02T04:31:22;95644.59;;;1.22;100.00
20624;BME280;10471;42.736;23.346;2023-02-02T04:33:47;95645.22;;;1.41;100.00
20624;BME280;10471;42.736;23.346;2023-02-02T04:36:13;95633.34;;;1.52;100.00
20624;BME280;10471;42.736;23.346;2023-02-02T04:38:38;95639.81;;;1.67;100.00
20624;BME280;10471;42.736;23.346;2023-02-02T04:41:08;95648.16;;;1.69;100.00
20624;BME280;10471;42.736;23.346;2023-02-02T04:43:34;95663.72;;;1.69;100.00
20624;BME280;10471;42.736;23.346;2023-02-02T04:46:00;95659.72;;;1.73;100.00
20624;BME280;10471;42.736;23.346;2023-02-02T04:48:25;95660.13;;;1.70;100.00
20624;BME280;10471;42.736;23.346;2023-02-02T04:51:00;95661.28;;;1.74;100.00
20624;BME280;10471;42.736;23.346;2023-02-02T04:53:26;95658.84;;;1.79;100.00
20624;BME280;10471;42.736;23.346;2023-02-02T04:55:52;95662.81;;;1.82;100.00
20624;BME280;10471;42.736;23.346;2023-02-02T04:58:17;95656.06;;;1.81;100.00
20624;BME280;10471;42.736;23.346;2023-02-02T05:00:43;95667.38;;;1.68;100.00
20624;BME280;10471;42.736;23.346;2023-02-02T05:03:09;95676.16;;;1.67;100.00
20624;BME280;10471;42.736;23.346;2023-02-02T05:05:34;95658.97;;;1.66;100.00
20624;BME280;10471;42.736;23.346;2023-02-02T05:08:00;95660.44;;;1.62;100.00
20624;BME280;10471;42.736;23.346;2023-02-02T05:10:25;95664.34;;;1.71;100.00
20624;BME280;10471;42.736;23.346;2023-02-02T05:12:54;95668.16;;;1.69;100.00
20624;BME280;10471;42.736;23.346;2023-02-02T05:15:20;95666.19;;;1.64;100.00
20624;BME280;10471;42.736;23.346;2023-02-02T05:17:47;95665.78;;;1.67;100.00
20624;BME280;10471;42.736;23.346;2023-02-02T05:20:12;95664.25;;;1.60;100.00
20624;BME280;10471;42.736;23.346;2023-02-02T05:22:38;95662.56;;;1.47;100.00
20624;BME280;10471;42.736;23.346;2023-02-02T05:25:06;95660.34;;;1.44;100.00
20624;BME280;10471;42.736;23.346;2023-02-02T05:27:32;95669.59;;;1.40;100.00
20624;BME280;10471;42.736;23.346;2023-02-02T05:29:58;95672.00;;;1.35;100.00
20624;BME280;10471;42.736;23.346;2023-02-02T05:32:24;95670.09;;;1.25;100.00
20624;BME280;10471;42.736;23.346;2023-02-02T05:34:49;95676.16;;;1.12;100.00
20624;BME280;10471;42.736;23.346;2023-02-02T05:37:14;95668.69;;;0.98;100.00
20624;BME280;10471;42.736;23.346;2023-02-02T05:39:40;95670.69;;;0.96;100.00
20624;BME280;10471;42.736;23.346;2023-02-02T05:42:05;95677.09;;;0.93;100.00
20624;BME280;10471;42.736;23.346;2023-02-02T05:44:31;95685.06;;;0.92;100.00
20624;BME280;10471;42.736;23.346;2023-02-02T05:46:56;95678.28;;;0.91;100.00
20624;BME280;10471;42.736;23.346;2023-02-02T05:49:22;95680.13;;;0.84;100.00
20624;BME280;10471;42.736;23.346;2023-02-02T05:51:50;95675.13;;;0.89;100.00
20624;BME280;10471;42.736;23.346;2023-02-02T05:54:16;95679.88;;;0.92;100.00
20624;BME280;10471;42.736;23.346;2023-02-02T05:56:45;95685.84;;;0.99;100.00
20624;BME280;10471;42.736;23.346;2023-02-02T05:59:11;95684.22;;;0.98;100.00
20624;BME280;10471;42.736;23.346;2023-02-02T06:01:36;95675.03;;;1.02;100.00
20624;BME280;10471;42.736;23.346;2023-02-02T06:04:02;95675.84;;;1.02;100.00
20624;BME280;10471;42.736;23.346;2023-02-02T06:06:27;95675.28;;;0.94;100.00
20624;BME280;10471;42.736;23.346;2023-02-02T06:08:52;95677.88;;;0.94;100.00
20624;BME280;10471;42.736;23.346;2023-02-02T06:11:18;95684.84;;;1.00;100.00
20624;BME280;10471;42.736;23.346;2023-02-02T06:13:43;95679.66;;;1.00;100.00
20624;BME280;10471;42.736;23.346;2023-02-02T06:16:09;95669.84;;;1.02;100.00
20624;BME280;10471;42.736;23.346;2023-02-02T06:18:35;95690.59;;;1.02;100.00
20624;BME280;10471;42.736;23.346;2023-02-02T06:21:02;95700.72;;;1.10;100.00
20624;BME280;10471;42.736;23.346;2023-02-02T06:23:29;95693.53;;;1.12;100.00
20624;BME280;10471;42.736;23.346;2023-02-02T06:25:54;95700.09;;;1.14;100.00
20624;BME280;10471;42.736;23.346;2023-02-02T06:28:20;95696.66;;;1.20;100.00
20624;BME280;10471;42.736;23.346;2023-02-02T06:30:46;95705.66;;;1.18;100.00
20624;BME280;10471;42.736;23.346;2023-02-02T06:33:11;95704.81;;;1.24;100.00
20624;BME280;10471;42.736;23.346;2023-02-02T06:35:37;95707.59;;;1.28;100.00
20624;BME280;10471;42.736;23.346;2023-02-02T06:38:02;95708.41;;;1.23;100.00
20624;BME280;10471;42.736;23.346;2023-02-02T06:40:27;95713.16;;;1.32;100.00
20624;BME280;10471;42.736;23.346;2023-02-02T06:43:01;95711.09;;;1.40;100.00
20624;BME280;10471;42.736;23.346;2023-02-02T06:45:28;95715.41;;;1.53;100.00
20624;BME280;10471;42.736;23.346;2023-02-02T06:47:57;95721.81;;;1.50;100.00
20624;BME280;10471;42.736;23.346;2023-02-02T06:50:24;95720.53;;;1.59;100.00
20624;BME280;10471;42.736;23.346;2023-02-02T06:52:51;95720.53;;;1.66;100.00
20624;BME280;10471;42.736;23.346;2023-02-02T06:55:17;95728.81;;;1.74;100.00
20624;BME280;10471;42.736;23.346;2023-02-02T06:57:43;95723.06;;;1.72;100.00
20624;BME280;10471;42.736;23.346;2023-02-02T07:00:09;95723.59;;;1.81;100.00
20624;BME280;10471;42.736;23.346;2023-02-02T07:02:34;95732.38;;;1.80;100.00
20624;BME280;10471;42.736;23.346;2023-02-02T07:05:00;95734.75;;;1.81;100.00
20624;BME280;10471;42.736;23.346;2023-02-02T07:07:26;95725.81;;;1.77;100.00
20624;BME280;10471;42.736;23.346;2023-02-02T07:09:51;95733.44;;;1.72;100.00
20624;BME280;10471;42.736;23.346;2023-02-02T07:12:16;95731.56;;;1.79;100.00
20624;BME280;10471;42.736;23.346;2023-02-02T07:14:43;95729.13;;;1.84;100.00
20624;BME280;10471;42.736;23.346;2023-02-02T07:17:09;95732.22;;;1.99;100.00
20624;BME280;10471;42.736;23.346;2023-02-02T07:19:34;95735.66;;;1.93;100.00
20624;BME280;10471;42.736;23.346;2023-02-02T07:22:00;95721.22;;;1.97;100.00
20624;BME280;10471;42.736;23.346;2023-02-02T07:24:25;95732.38;;;2.04;100.00
20624;BME280;10471;42.736;23.346;2023-02-02T07:26:51;95730.47;;;1.93;100.00
20624;BME280;10471;42.736;23.346;2023-02-02T07:29:17;95733.31;;;2.09;100.00
20624;BME280;10471;42.736;23.346;2023-02-02T07:31:43;95735.69;;;2.11;100.00
20624;BME280;10471;42.736;23.346;2023-02-02T07:34:08;95734.84;;;2.17;100.00
20624;BME280;10471;42.736;23.346;2023-02-02T07:36:34;95726.19;;;2.23;100.00
20624;BME280;10471;42.736;23.346;2023-02-02T07:38:59;95731.75;;;2.26;100.00
20624;BME280;10471;42.736;23.346;2023-02-02T07:41:28;95725.41;;;2.40;100.00
20624;BME280;10471;42.736;23.346;2023-02-02T07:43:53;95719.78;;;2.43;100.00
20624;BME280;10471;42.736;23.346;2023-02-02T07:46:19;95721.44;;;2.56;100.00
20624;BME280;10471;42.736;23.346;2023-02-02T07:48:44;95705.31;;;2.65;100.00
20624;BME280;10471;42.736;23.346;2023-02-02T07:51:12;95704.53;;;2.82;100.00
20624;BME280;10471;42.736;23.346;2023-02-02T07:53:42;95707.53;;;2.97;100.00
20624;BME280;10471;42.736;23.346;2023-02-02T07:56:09;95694.47;;;3.15;100.00
20624;BME280;10471;42.736;23.346;2023-02-02T07:58:35;95701.34;;;3.39;100.00
20624;BME280;10471;42.736;23.346;2023-02-02T08:01:03;95688.81;;;3.59;100.00
20624;BME280;10471;42.736;23.346;2023-02-02T08:03:29;95689.75;;;3.87;100.00
20624;BME280;10471;42.736;23.346;2023-02-02T08:05:56;95684.88;;;4.13;100.00
20624;BME280;10471;42.736;23.346;2023-02-02T08:08:21;95701.66;;;4.40;100.00
20624;BME280;10471;42.736;23.346;2023-02-02T08:10:51;95701.72;;;4.68;100.00
20624;BME280;10471;42.736;23.346;2023-02-02T08:13:18;95699.03;;;4.91;100.00
20624;BME280;10471;42.736;23.346;2023-02-02T08:15:43;95686.28;;;5.06;100.00
20624;BME280;10471;42.736;23.346;2023-02-02T08:18:08;95679.38;;;5.27;100.00
20624;BME280;10471;42.736;23.346;2023-02-02T08:20:34;95677.50;;;5.39;100.00
20624;BME280;10471;42.736;23.346;2023-02-02T08:22:59;95681.69;;;5.40;100.00
20624;BME280;10471;42.736;23.346;2023-02-02T08:25:25;95669.34;;;5.52;100.00
20624;BME280;10471;42.736;23.346;2023-02-02T08:27:55;95673.63;;;5.58;100.00
20624;BME280;10471;42.736;23.346;2023-02-02T08:30:23;95675.13;;;5.54;100.00
20624;BME280;10471;42.736;23.346;2023-02-02T08:32:48;95662.16;;;5.59;100.00
20624;BME280;10471;42.736;23.346;2023-02-02T08:35:14;95671.34;;;5.62;99.96
20624;BME280;10471;42.736;23.346;2023-02-02T08:37:39;95664.09;;;5.80;100.00
20624;BME280;10471;42.736;23.346;2023-02-02T08:40:05;95657.44;;;5.89;99.74
20624;BME280;10471;42.736;23.346;2023-02-02T08:42:31;95653.78;;;6.06;100.00
20624;BME280;10471;42.736;23.346;2023-02-02T08:44:56;95649.16;;;6.13;98.87
20624;BME280;10471;42.736;23.346;2023-02-02T08:47:22;95644.25;;;6.17;98.38
20624;BME280;10471;42.736;23.346;2023-02-02T08:49:47;95648.91;;;6.31;98.19
20624;BME280;10471;42.736;23.346;2023-02-02T08:52:12;95646.94;;;6.43;97.78
20624;BME280;10471;42.736;23.346;2023-02-02T08:54:38;95647.06;;;6.32;95.10
20624;BME280;10471;42.736;23.346;2023-02-02T08:57:03;95652.31;;;6.32;93.97
20624;BME280;10471;42.736;23.346;2023-02-02T08:59:29;95658.63;;;6.36;92.97
20624;BME280;10471;42.736;23.346;2023-02-02T09:01:54;95649.41;;;6.50;91.30
20624;BME280;10471;42.736;23.346;2023-02-02T09:04:20;95648.44;;;6.55;91.49
20624;BME280;10471;42.736;23.346;2023-02-02T09:06:46;95649.59;;;6.64;91.30
20624;BME280;10471;42.736;23.346;2023-02-02T09:09:14;95644.41;;;6.69;91.87
20624;BME280;10471;42.736;23.346;2023-02-02T09:11:41;95637.34;;;6.91;91.45
20624;BME280;10471;42.736;23.346;2023-02-02T09:14:06;95641.00;;;6.90;87.45
20624;BME280;10471;42.736;23.346;2023-02-02T09:16:33;95633.00;;;7.02;90.39
20624;BME280;10471;42.736;23.346;2023-02-02T09:18:59;95629.84;;;7.00;90.46
20624;BME280;10471;42.736;23.346;2023-02-02T09:21:24;95639.88;;;7.08;90.36
20624;BME280;10471;42.736;23.346;2023-02-02T09:23:51;95641.31;;;7.20;91.30
20624;BME280;10471;42.736;23.346;2023-02-02T09:26:19;95638.75;;;7.25;87.80
20624;BME280;10471;42.736;23.346;2023-02-02T09:28:47;95635.63;;;7.28;86.32
20624;BME280;10471;42.736;23.346;2023-02-02T09:31:13;95627.06;;;7.11;88.62
20624;BME280;10471;42.736;23.346;2023-02-02T09:33:40;95621.75;;;7.01;86.28
20624;BME280;10471;42.736;23.346;2023-02-02T09:36:09;95626.09;;;7.17;86.06
20624;BME280;10471;42.736;23.346;2023-02-02T09:38:36;95610.13;;;7.18;86.10
20624;BME280;10471;42.736;23.346;2023-02-02T09:41:14;95610.94;;;7.24;84.98
20624;BME280;10471;42.736;23.346;2023-02-02T09:43:55;95607.88;;;7.32;87.15
20624;BME280;10471;42.736;23.346;2023-02-02T09:49:23;95607.13;;;7.36;93.04
20624;BME280;10471;42.736;23.346;2023-02-02T09:51:58;95609.47;;;7.64;83.46
20624;BME280;10471;42.736;23.346;2023-02-02T09:54:32;95609.97;;;7.61;80.72
20624;BME280;10471;42.736;23.346;2023-02-02T09:57:02;95606.88;;;7.69;79.20
20624;BME280;10471;42.736;23.346;2023-02-02T09:59:38;95590.47;;;7.83;76.37
20624;BME280;10471;42.736;23.346;2023-02-02T10:02:21;95586.44;;;8.12;75.04
20624;BME280;10471;42.736;23.346;2023-02-02T10:04:53;95579.81;;;8.46;72.28
20624;BME280;10471;42.736;23.346;2023-02-02T10:07:26;95581.22;;;8.63;69.14
20624;BME280;10471;42.736;23.346;2023-02-02T10:10:02;95581.44;;;8.57;68.14
20624;BME280;10471;42.736;23.346;2023-02-02T10:12:53;95574.19;;;8.79;66.73
20624;BME280;10471;42.736;23.346;2023-02-02T10:17:54;95562.63;;;8.95;66.33
20624;BME280;10471;42.736;23.346;2023-02-02T10:20:44;95558.50;;;9.33;66.59
20624;BME280;10471;42.736;23.346;2023-02-02T10:23:34;95544.56;;;9.28;63.12
20624;BME280;10471;42.736;23.346;2023-02-02T10:26:22;95550.59;;;9.38;62.53
20624;BME280;10471;42.736;23.346;2023-02-02T10:45:11;95507.38;;;10.04;58.57
20624;BME280;10471;42.736;23.346;2023-02-02T10:47:38;95495.25;;;10.18;57.85
20624;BME280;10471;42.736;23.346;2023-02-02T10:50:16;95490.81;;;9.88;58.88
20624;BME280;10471;42.736;23.346;2023-02-02T10:52:54;95490.06;;;9.98;57.21
20624;BME280;10471;42.736;23.346;2023-02-02T10:55:52;95490.56;;;10.00;56.90
20624;BME280;10471;42.736;23.346;2023-02-02T10:58:26;95490.28;;;10.01;57.05
20624;BME280;10471;42.736;23.346;2023-02-02T11:00:57;95489.78;;;9.99;56.56
20624;BME280;10471;42.736;23.346;2023-02-02T11:03:30;95485.19;;;10.25;56.00
20624;BME280;10471;42.736;23.346;2023-02-02T11:06:01;95467.19;;;10.46;56.12
20624;BME280;10471;42.736;23.346;2023-02-02T11:08:49;95461.59;;;10.63;55.05
20624;BME280;10471;42.736;23.346;2023-02-02T11:14:00;95469.47;;;10.05;55.32
20624;BME280;10471;42.736;23.346;2023-02-02T11:16:31;95449.56;;;10.42;55.17
20624;BME280;10471;42.736;23.346;2023-02-02T11:18:57;95459.69;;;10.68;54.88
20624;BME280;10471;42.736;23.346;2023-02-02T11:21:28;95457.63;;;10.65;51.65
20624;BME280;10471;42.736;23.346;2023-02-02T11:24:02;95451.88;;;10.53;53.00
20624;BME280;10471;42.736;23.346;2023-02-02T11:26:44;95436.19;;;10.77;52.89
20624;BME280;10471;42.736;23.346;2023-02-02T11:29:26;95441.56;;;10.62;54.00
20624;BME280;10471;42.736;23.346;2023-02-02T11:31:53;95445.22;;;10.66;53.71
20624;BME280;10471;42.736;23.346;2023-02-02T11:34:21;95422.78;;;10.68;53.08
20624;BME280;10471;42.736;23.346;2023-02-02T11:39:25;95427.56;;;10.61;52.75
20624;BME280;10471;42.736;23.346;2023-02-02T11:42:12;95422.34;;;10.56;53.73
20624;BME280;10471;42.736;23.346;2023-02-02T11:44:52;95420.25;;;10.53;56.01
20624;BME280;10471;42.736;23.346;2023-02-02T11:47:26;95416.56;;;10.54;55.15
20624;BME280;10471;42.736;23.346;2023-02-02T11:49:53;95411.78;;;10.56;55.79
20624;BME280;10471;42.736;23.346;2023-02-02T11:52:24;95403.00;;;10.33;55.32
20624;BME280;10471;42.736;23.346;2023-02-02T11:54:53;95394.44;;;10.50;56.17
20624;BME280;10471;42.736;23.346;2023-02-02T11:57:22;95393.31;;;10.61;55.11
20624;BME280;10471;42.736;23.346;2023-02-02T11:59:50;95396.47;;;10.25;55.21
20624;BME280;10471;42.736;23.346;2023-02-02T12:04:49;95419.41;;;10.15;54.34
20624;BME280;10471;42.736;23.346;2023-02-02T12:07:27;95406.53;;;10.13;52.16
20624;BME280;10471;42.736;23.346;2023-02-02T12:09:56;95401.25;;;10.13;50.87
20624;BME280;10471;42.736;23.346;2023-02-02T12:12:44;95401.06;;;10.00;50.74
20624;BME280;10471;42.736;23.346;2023-02-02T12:15:18;95407.13;;;9.85;51.67
20624;BME280;10471;42.736;23.346;2023-02-02T12:17:48;95400.31;;;9.84;52.49
20624;BME280;10471;42.736;23.346;2023-02-02T12:58:38;95394.97;;;9.02;55.34
20624;BME280;10471;42.736;23.346;2023-02-02T13:04:12;95391.31;;;9.03;54.78
20624;BME280;10471;42.736;23.346;2023-02-02T13:09:13;95384.47;;;9.02;55.77
20624;BME280;10471;42.736;23.346;2023-02-02T13:11:48;95393.91;;;9.08;55.42
20624;BME280;10471;42.736;23.346;2023-02-02T13:16:47;95402.88;;;8.97;54.98
20624;BME280;10471;42.736;23.346;2023-02-02T13:19:33;95400.22;;;8.97;55.57
20624;BME280;10471;42.736;23.346;2023-02-02T13:22:03;95385.50;;;9.01;58.76
20624;BME280;10471;42.736;23.346;2023-02-02T13:24:32;95396.56;;;9.03;60.02
20624;BME280;10471;42.736;23.346;2023-02-02T13:27:00;95388.41;;;8.99;61.33
20624;BME280;10471;42.736;23.346;2023-02-02T13:29:52;95383.44;;;8.98;63.37
20624;BME280;10471;42.736;23.346;2023-02-02T13:32:35;95371.88;;;8.94;62.99
20624;BME280;10471;42.736;23.346;2023-02-02T13:40:24;95390.72;;;9.40;65.05
20624;BME280;10471;42.736;23.346;2023-02-02T14:00:19;95373.16;;;8.66;75.75
20624;BME280;10471;42.736;23.346;2023-02-02T14:02:52;95387.63;;;8.64;76.58
20624;BME280;10471;42.736;23.346;2023-02-02T14:13:23;95413.88;;;8.49;73.32
20624;BME280;10471;42.736;23.346;2023-02-02T14:16:21;95409.59;;;8.18;79.78
20624;BME280;10471;42.736;23.346;2023-02-02T14:26:53;95440.69;;;7.39;100.00
20624;BME280;10471;42.736;23.346;2023-02-02T14:31:56;95470.59;;;7.02;100.00
20624;BME280;10471;42.736;23.346;2023-02-02T14:45:36;95506.28;;;6.29;100.00
20624;BME280;10471;42.736;23.346;2023-02-02T14:55:31;95571.59;;;4.60;100.00
20624;BME280;10471;42.736;23.346;2023-02-02T14:58:01;95553.25;;;4.27;100.00
20624;BME280;10471;42.736;23.346;2023-02-02T15:00:30;95557.50;;;4.05;100.00
20624;BME280;10471;42.736;23.346;2023-02-02T15:03:31;95556.38;;;4.01;100.00
20624;BME280;10471;42.736;23.346;2023-02-02T15:07:34;95559.34;;;3.93;100.00
20624;BME280;10471;42.736;23.346;2023-02-02T15:14:24;95585.59;;;4.03;100.00
20624;BME280;10471;42.736;23.346;2023-02-02T15:16:51;95611.22;;;4.06;100.00
20624;BME280;10471;42.736;23.346;2023-02-02T15:19:26;95610.75;;;4.09;100.00
20624;BME280;10471;42.736;23.346;2023-02-02T15:21:58;95617.91;;;4.02;100.00
20624;BME280;10471;42.736;23.346;2023-02-02T15:24:29;95611.69;;;3.92;100.00
20624;BME280;10471;42.736;23.346;2023-02-02T15:26:58;95613.72;;;3.79;100.00
20624;BME280;10471;42.736;23.346;2023-02-02T15:29:36;95616.78;;;3.64;100.00
20624;BME280;10471;42.736;23.346;2023-02-02T15:32:06;95634.78;;;3.54;100.00
20624;BME280;10471;42.736;23.346;2023-02-02T15:34:45;95623.91;;;3.46;100.00
20624;BME280;10471;42.736;23.346;2023-02-02T15:37:16;95628.75;;;3.20;100.00
20624;BME280;10471;42.736;23.346;2023-02-02T15:39:45;95616.84;;;3.12;100.00
20624;BME280;10471;42.736;23.346;2023-02-02T15:42:42;95617.63;;;3.13;100.00
20624;BME280;10471;42.736;23.346;2023-02-02T15:47:57;95620.91;;;3.08;100.00
20624;BME280;10471;42.736;23.346;2023-02-02T15:50:24;95637.06;;;3.10;100.00
20624;BME280;10471;42.736;23.346;2023-02-02T15:52:50;95640.38;;;3.17;100.00
20624;BME280;10471;42.736;23.346;2023-02-02T15:55:29;95645.59;;;3.17;100.00
20624;BME280;10471;42.736;23.346;2023-02-02T15:57:55;95660.31;;;3.23;100.00